WLS541M EGFF-LFBZ
Flight info
| Callsign | WLS541M |
|---|---|
| Flight time | N/A |
| Altitude | 33000 |
| Route | EXMOR N92 TIVER DCT MANIG DCT KORER UN26 UVUDO UN862 UTISO DCT ASKAN DCT MAGEC |
| Aircraft | B738/M-SDE2E3FGHIRWXY/LB1 |
Departure
| Time | N/A |
|---|---|
| Airport | Cardiff International Airport (EGFF) |
Arrival
| Time | 2026-04-20 20:08 |
|---|---|
| Airport | Biarritz Pays Basque airport (LFBZ) |
| Time | Latitude | Longitude | Altitude | Speed | Heading |
|---|---|---|---|---|---|
| 2026-04-20 19:45 | 45.11527 | -1.06968 | 27944 ft | 423 kts | 168° |
| 2026-04-20 19:46 | 45.08720 | -1.05796 | 27475 ft | 419 kts | 168° |
| 2026-04-20 19:46 | 45.05962 | -1.04721 | 27019 ft | 413 kts | 173° |
| 2026-04-20 19:46 | 45.03146 | -1.04215 | 26589 ft | 403 kts | 182° |
| 2026-04-20 19:46 | 45.00368 | -1.04360 | 26121 ft | 396 kts | 190° |
| 2026-04-20 19:47 | 44.97624 | -1.04712 | 25651 ft | 394 kts | 190° |
| 2026-04-20 19:47 | 44.94905 | -1.05079 | 25217 ft | 391 kts | 190° |
| 2026-04-20 19:47 | 44.92196 | -1.05442 | 24785 ft | 389 kts | 190° |
| 2026-04-20 19:47 | 44.89504 | -1.05794 | 24358 ft | 387 kts | 190° |
| 2026-04-20 19:48 | 44.86822 | -1.06137 | 23925 ft | 386 kts | 189° |
| 2026-04-20 19:48 | 44.84185 | -1.06468 | 23488 ft | 385 kts | 189° |
| 2026-04-20 19:48 | 44.81526 | -1.06796 | 23000 ft | 383 kts | 189° |
| 2026-04-20 19:48 | 44.78879 | -1.07121 | 22539 ft | 380 kts | 189° |
| 2026-04-20 19:49 | 44.76250 | -1.07441 | 22095 ft | 377 kts | 189° |
| 2026-04-20 19:49 | 44.73645 | -1.07758 | 21668 ft | 374 kts | 189° |
| 2026-04-20 19:49 | 44.71056 | -1.08072 | 21262 ft | 372 kts | 189° |
| 2026-04-20 19:49 | 44.68478 | -1.08385 | 20839 ft | 369 kts | 189° |
| 2026-04-20 19:50 | 44.65931 | -1.08695 | 20428 ft | 366 kts | 189° |
| 2026-04-20 19:50 | 44.63397 | -1.09002 | 20009 ft | 364 kts | 189° |
| 2026-04-20 19:50 | 44.60880 | -1.09307 | 19614 ft | 362 kts | 189° |
| 2026-04-20 19:50 | 44.58409 | -1.09607 | 19218 ft | 360 kts | 189° |
| 2026-04-20 19:51 | 44.55921 | -1.09908 | 18818 ft | 358 kts | 189° |
| 2026-04-20 19:51 | 44.53446 | -1.10207 | 18416 ft | 356 kts | 189° |
| 2026-04-20 19:51 | 44.50982 | -1.10505 | 17985 ft | 355 kts | 189° |
| 2026-04-20 19:51 | 44.48527 | -1.10802 | 17540 ft | 353 kts | 189° |
| 2026-04-20 19:52 | 44.46091 | -1.11095 | 17120 ft | 350 kts | 189° |
| 2026-04-20 19:52 | 44.43662 | -1.11388 | 16686 ft | 348 kts | 189° |
| 2026-04-20 19:52 | 44.41260 | -1.11676 | 16273 ft | 345 kts | 189° |
| 2026-04-20 19:52 | 44.38873 | -1.11964 | 15890 ft | 343 kts | 189° |
| 2026-04-20 19:53 | 44.36502 | -1.12248 | 15500 ft | 341 kts | 189° |
| 2026-04-20 19:53 | 44.34146 | -1.12531 | 15116 ft | 339 kts | 189° |
| 2026-04-20 19:53 | 44.31804 | -1.12812 | 14722 ft | 337 kts | 189° |
| 2026-04-20 19:53 | 44.29473 | -1.13092 | 14369 ft | 335 kts | 189° |
| 2026-04-20 19:54 | 44.27153 | -1.13370 | 13988 ft | 334 kts | 189° |
| 2026-04-20 19:54 | 44.24874 | -1.13644 | 13597 ft | 333 kts | 189° |
| 2026-04-20 19:54 | 44.22570 | -1.13919 | 13173 ft | 331 kts | 188° |
| 2026-04-20 19:54 | 44.20281 | -1.14193 | 12766 ft | 329 kts | 188° |
| 2026-04-20 19:55 | 44.18003 | -1.14465 | 12377 ft | 327 kts | 188° |
| 2026-04-20 19:55 | 44.15743 | -1.14734 | 11998 ft | 325 kts | 188° |
| 2026-04-20 19:55 | 44.13502 | -1.15001 | 11618 ft | 322 kts | 189° |
| 2026-04-20 19:55 | 44.11276 | -1.15266 | 11240 ft | 320 kts | 189° |
| 2026-04-20 19:56 | 44.09063 | -1.15530 | 10868 ft | 318 kts | 189° |
| 2026-04-20 19:56 | 44.06857 | -1.15792 | 10500 ft | 317 kts | 189° |
| 2026-04-20 19:56 | 44.04679 | -1.16050 | 10302 ft | 309 kts | 189° |
| 2026-04-20 19:56 | 44.02567 | -1.16299 | 10155 ft | 300 kts | 189° |
| 2026-04-20 19:57 | 44.00515 | -1.16541 | 10014 ft | 292 kts | 189° |
| 2026-04-20 19:57 | 43.98515 | -1.16777 | 9843 ft | 286 kts | 189° |
| 2026-04-20 19:57 | 43.96540 | -1.17013 | 9529 ft | 284 kts | 189° |
| 2026-04-20 19:57 | 43.94577 | -1.17248 | 9238 ft | 282 kts | 189° |
| 2026-04-20 19:58 | 43.92626 | -1.17480 | 8948 ft | 280 kts | 188° |
| 2026-04-20 19:58 | 43.90709 | -1.17708 | 8665 ft | 279 kts | 188° |
| 2026-04-20 19:58 | 43.88787 | -1.17936 | 8377 ft | 277 kts | 188° |
| 2026-04-20 19:58 | 43.86871 | -1.18163 | 8084 ft | 275 kts | 188° |
| 2026-04-20 19:59 | 43.84965 | -1.18388 | 7810 ft | 274 kts | 187° |
| 2026-04-20 19:59 | 43.83064 | -1.18613 | 7524 ft | 273 kts | 187° |
| 2026-04-20 19:59 | 43.81172 | -1.18837 | 7235 ft | 272 kts | 187° |
| 2026-04-20 19:59 | 43.79290 | -1.19058 | 6957 ft | 271 kts | 187° |
| 2026-04-20 20:00 | 43.77412 | -1.19280 | 6678 ft | 270 kts | 187° |
| 2026-04-20 20:00 | 43.75542 | -1.19500 | 6400 ft | 269 kts | 186° |
| 2026-04-20 20:00 | 43.73707 | -1.19793 | 6111 ft | 268 kts | 191° |
| 2026-04-20 20:00 | 43.71873 | -1.20239 | 5815 ft | 267 kts | 191° |
| 2026-04-20 20:01 | 43.70050 | -1.20706 | 5532 ft | 266 kts | 191° |
| 2026-04-20 20:01 | 43.68233 | -1.21166 | 5237 ft | 265 kts | 191° |
| 2026-04-20 20:01 | 43.66430 | -1.21612 | 5034 ft | 261 kts | 190° |
| 2026-04-20 20:01 | 43.64653 | -1.22045 | 4787 ft | 258 kts | 190° |
| 2026-04-20 20:02 | 43.62887 | -1.22473 | 4513 ft | 257 kts | 189° |
| 2026-04-20 20:02 | 43.61124 | -1.22900 | 4233 ft | 257 kts | 188° |
| 2026-04-20 20:02 | 43.59368 | -1.23318 | 3957 ft | 256 kts | 188° |
| 2026-04-20 20:02 | 43.57619 | -1.23733 | 3735 ft | 253 kts | 188° |
| 2026-04-20 20:03 | 43.55909 | -1.24139 | 3619 ft | 246 kts | 188° |
| 2026-04-20 20:03 | 43.54242 | -1.24534 | 3489 ft | 239 kts | 188° |
| 2026-04-20 20:03 | 43.52619 | -1.24913 | 3493 ft | 234 kts | 187° |
| 2026-04-20 20:03 | 43.51029 | -1.25284 | 3480 ft | 228 kts | 187° |
| 2026-04-20 20:04 | 43.49516 | -1.25638 | 3480 ft | 212 kts | 187° |
| 2026-04-20 20:04 | 43.48156 | -1.26190 | 3428 ft | 200 kts | 212° |
| 2026-04-20 20:04 | 43.47371 | -1.27730 | 3217 ft | 202 kts | 257° |
| 2026-04-20 20:04 | 43.47244 | -1.29631 | 3111 ft | 201 kts | 263° |
| 2026-04-20 20:05 | 43.47108 | -1.31530 | 2930 ft | 200 kts | 265° |
| 2026-04-20 20:05 | 43.47049 | -1.33453 | 2675 ft | 200 kts | 268° |
| 2026-04-20 20:05 | 43.47026 | -1.35316 | 2414 ft | 189 kts | 269° |
| 2026-04-20 20:05 | 43.47006 | -1.37080 | 2174 ft | 180 kts | 269° |
| 2026-04-20 20:06 | 43.46987 | -1.38748 | 1985 ft | 166 kts | 269° |
| 2026-04-20 20:06 | 43.46969 | -1.40287 | 1739 ft | 154 kts | 270° |
| 2026-04-20 20:06 | 43.46954 | -1.41721 | 1560 ft | 147 kts | 270° |
| 2026-04-20 20:06 | 43.46940 | -1.43133 | 1341 ft | 145 kts | 270° |
| 2026-04-20 20:07 | 43.46926 | -1.44504 | 1140 ft | 143 kts | 270° |
| 2026-04-20 20:07 | 43.46917 | -1.45873 | 959 ft | 142 kts | 270° |
| 2026-04-20 20:07 | 43.46909 | -1.47215 | 808 ft | 139 kts | 269° |
| 2026-04-20 20:07 | 43.46882 | -1.48521 | 608 ft | 137 kts | 268° |
| 2026-04-20 20:08 | 43.46871 | -1.49817 | 421 ft | 135 kts | 268° |
| 2026-04-20 20:08 | 43.46850 | -1.51095 | 264 ft | 133 kts | 269° |
| 2026-04-20 20:08 | 43.46841 | -1.52229 | 249 ft | 93 kts | 269° |
| 2026-04-20 20:08 | 43.46832 | -1.52822 | 253 ft | 31 kts | 269° |
| 2026-04-20 20:09 | 43.46832 | -1.53071 | 255 ft | 20 kts | 274° |
| 2026-04-20 20:09 | 43.46892 | -1.53158 | 255 ft | 14 kts | 334° |
| 2026-04-20 20:09 | 43.46978 | -1.53201 | 256 ft | 6 kts | 8° |
| 2026-04-20 20:09 | 43.47028 | -1.53173 | 256 ft | 10 kts | 40° |
| 2026-04-20 20:10 | 43.47079 | -1.53133 | 256 ft | 6 kts | 20° |
| 2026-04-20 20:10 | 43.47104 | -1.53123 | 256 ft | 4 kts | 15° |
| 2026-04-20 20:10 | 43.47115 | -1.53119 | 256 ft | 0 kts | 14° |
| 2026-04-20 20:10 | 43.47117 | -1.53118 | 256 ft | 0 kts | 14° |